sensor_id;sensor_type;location;lat;lon;timestamp;temperature;humidity
11764;DHT22;5939;56.522;14.950;2023-07-08T00:00:22;16.50;99.90
11764;DHT22;5939;56.522;14.950;2023-07-08T00:02:48;16.50;99.90
11764;DHT22;5939;56.522;14.950;2023-07-08T00:05:16;16.50;99.90
11764;DHT22;5939;56.522;14.950;2023-07-08T00:07:42;16.40;99.90
11764;DHT22;5939;56.522;14.950;2023-07-08T00:10:22;16.40;99.90
11764;DHT22;5939;56.522;14.950;2023-07-08T00:12:50;16.40;99.90
11764;DHT22;5939;56.522;14.950;2023-07-08T00:15:17;16.30;99.90
11764;DHT22;5939;56.522;14.950;2023-07-08T00:17:43;16.30;99.90
11764;DHT22;5939;56.522;14.950;2023-07-08T00:20:34;16.30;99.90
11764;DHT22;5939;56.522;14.950;2023-07-08T00:23:00;16.30;99.90
11764;DHT22;5939;56.522;14.950;2023-07-08T00:25:27;16.20;99.90
11764;DHT22;5939;56.522;14.950;2023-07-08T00:27:53;16.20;99.90
11764;DHT22;5939;56.522;14.950;2023-07-08T00:32:47;16.20;99.90
11764;DHT22;5939;56.522;14.950;2023-07-08T00:35:40;16.20;99.90
11764;DHT22;5939;56.522;14.950;2023-07-08T00:38:15;16.20;99.90
11764;DHT22;5939;56.522;14.950;2023-07-08T00:43:18;16.10;99.90
11764;DHT22;5939;56.522;14.950;2023-07-08T00:45:48;16.10;99.90
11764;DHT22;5939;56.522;14.950;2023-07-08T00:48:23;16.00;99.90
11764;DHT22;5939;56.522;14.950;2023-07-08T00:50:50;16.00;99.90
11764;DHT22;5939;56.522;14.950;2023-07-08T00:53:37;16.00;99.90
11764;DHT22;5939;56.522;14.950;2023-07-08T00:58:42;15.90;99.90
11764;DHT22;5939;56.522;14.950;2023-07-08T01:01:09;15.90;99.90
11764;DHT22;5939;56.522;14.950;2023-07-08T01:03:50;15.90;99.90
11764;DHT22;5939;56.522;14.950;2023-07-08T01:06:18;15.90;99.90
11764;DHT22;5939;56.522;14.950;2023-07-08T01:08:45;15.90;99.90
11764;DHT22;5939;56.522;14.950;2023-07-08T01:11:11;15.80;99.90
11764;DHT22;5939;56.522;14.950;2023-07-08T01:13:40;15.80;99.90
11764;DHT22;5939;56.522;14.950;2023-07-08T01:16:08;15.80;99.90
11764;DHT22;5939;56.522;14.950;2023-07-08T01:18:34;15.80;99.90
11764;DHT22;5939;56.522;14.950;2023-07-08T01:21:02;15.70;99.90
11764;DHT22;5939;56.522;14.950;2023-07-08T01:23:30;15.70;99.90
11764;DHT22;5939;56.522;14.950;2023-07-08T01:25:56;15.70;99.90
11764;DHT22;5939;56.522;14.950;2023-07-08T01:28:21;15.60;99.90
11764;DHT22;5939;56.522;14.950;2023-07-08T01:30:48;15.70;99.90
11764;DHT22;5939;56.522;14.950;2023-07-08T01:33:19;15.60;99.90
11764;DHT22;5939;56.522;14.950;2023-07-08T01:35:47;15.60;99.90
11764;DHT22;5939;56.522;14.950;2023-07-08T01:38:17;15.60;99.90
11764;DHT22;5939;56.522;14.950;2023-07-08T01:40:55;15.60;99.90
11764;DHT22;5939;56.522;14.950;2023-07-08T01:43:21;15.50;99.90
11764;DHT22;5939;56.522;14.950;2023-07-08T01:45:48;15.50;99.90
11764;DHT22;5939;56.522;14.950;2023-07-08T01:48:17;15.50;99.90
11764;DHT22;5939;56.522;14.950;2023-07-08T01:50:56;15.50;99.90
11764;DHT22;5939;56.522;14.950;2023-07-08T01:53:35;15.50;99.90
11764;DHT22;5939;56.522;14.950;2023-07-08T01:56:02;15.40;99.90
11764;DHT22;5939;56.522;14.950;2023-07-08T01:58:28;15.40;99.90
11764;DHT22;5939;56.522;14.950;2023-07-08T02:00:54;15.40;99.90
11764;DHT22;5939;56.522;14.950;2023-07-08T02:03:20;15.40;99.90
11764;DHT22;5939;56.522;14.950;2023-07-08T02:05:46;15.30;99.90
11764;DHT22;5939;56.522;14.950;2023-07-08T02:08:12;15.30;99.90
11764;DHT22;5939;56.522;14.950;2023-07-08T02:10:39;15.30;99.90
11764;DHT22;5939;56.522;14.950;2023-07-08T02:13:05;15.30;99.90
11764;DHT22;5939;56.522;14.950;2023-07-08T02:15:32;15.30;99.90
11764;DHT22;5939;56.522;14.950;2023-07-08T02:17:58;15.20;99.90
11764;DHT22;5939;56.522;14.950;2023-07-08T02:20:23;15.20;99.90
11764;DHT22;5939;56.522;14.950;2023-07-08T02:22:49;15.20;99.90
11764;DHT22;5939;56.522;14.950;2023-07-08T02:25:15;15.20;99.90
11764;DHT22;5939;56.522;14.950;2023-07-08T02:27:41;15.20;99.90
11764;DHT22;5939;56.522;14.950;2023-07-08T02:30:08;15.10;99.90
11764;DHT22;5939;56.522;14.950;2023-07-08T02:32:34;15.10;99.90
11764;DHT22;5939;56.522;14.950;2023-07-08T02:35:02;15.10;99.90
11764;DHT22;5939;56.522;14.950;2023-07-08T02:37:29;15.10;99.90
11764;DHT22;5939;56.522;14.950;2023-07-08T02:39:55;15.10;99.90
11764;DHT22;5939;56.522;14.950;2023-07-08T02:42:21;15.10;99.90
11764;DHT22;5939;56.522;14.950;2023-07-08T02:44:47;15.00;99.90
11764;DHT22;5939;56.522;14.950;2023-07-08T02:47:12;15.00;99.90
11764;DHT22;5939;56.522;14.950;2023-07-08T02:49:38;15.00;99.90
11764;DHT22;5939;56.522;14.950;2023-07-08T02:52:04;15.00;99.90
11764;DHT22;5939;56.522;14.950;2023-07-08T02:54:29;15.00;99.90
11764;DHT22;5939;56.522;14.950;2023-07-08T02:56:55;14.90;99.90
11764;DHT22;5939;56.522;14.950;2023-07-08T02:59:21;14.90;99.90
11764;DHT22;5939;56.522;14.950;2023-07-08T03:01:46;14.90;99.90
11764;DHT22;5939;56.522;14.950;2023-07-08T03:04:13;14.90;99.90
11764;DHT22;5939;56.522;14.950;2023-07-08T03:06:50;14.90;99.90
11764;DHT22;5939;56.522;14.950;2023-07-08T03:09:16;14.90;99.90
11764;DHT22;5939;56.522;14.950;2023-07-08T03:11:43;14.90;99.90
11764;DHT22;5939;56.522;14.950;2023-07-08T03:14:08;14.80;99.90
11764;DHT22;5939;56.522;14.950;2023-07-08T03:16:34;14.80;99.90
11764;DHT22;5939;56.522;14.950;2023-07-08T03:19:00;14.80;99.90
11764;DHT22;5939;56.522;14.950;2023-07-08T03:21:25;14.80;99.90
11764;DHT22;5939;56.522;14.950;2023-07-08T03:23:52;14.80;99.90
11764;DHT22;5939;56.522;14.950;2023-07-08T03:26:20;14.80;99.90
11764;DHT22;5939;56.522;14.950;2023-07-08T03:28:47;14.80;99.90
11764;DHT22;5939;56.522;14.950;2023-07-08T03:31:13;14.80;99.90
11764;DHT22;5939;56.522;14.950;2023-07-08T03:33:39;14.70;99.90
11764;DHT22;5939;56.522;14.950;2023-07-08T03:36:08;14.70;99.90
11764;DHT22;5939;56.522;14.950;2023-07-08T03:38:35;14.70;99.90
11764;DHT22;5939;56.522;14.950;2023-07-08T03:41:01;14.70;99.90
11764;DHT22;5939;56.522;14.950;2023-07-08T03:43:26;14.70;99.90
11764;DHT22;5939;56.522;14.950;2023-07-08T03:45:52;14.70;99.90
11764;DHT22;5939;56.522;14.950;2023-07-08T03:48:18;14.70;99.90
11764;DHT22;5939;56.522;14.950;2023-07-08T03:50:44;14.70;99.90
11764;DHT22;5939;56.522;14.950;2023-07-08T03:53:09;14.70;99.90
11764;DHT22;5939;56.522;14.950;2023-07-08T03:55:35;14.70;99.90
11764;DHT22;5939;56.522;14.950;2023-07-08T03:58:01;14.70;99.90
11764;DHT22;5939;56.522;14.950;2023-07-08T04:00:26;14.70;99.90
11764;DHT22;5939;56.522;14.950;2023-07-08T04:02:52;14.70;99.90
11764;DHT22;5939;56.522;14.950;2023-07-08T04:05:19;14.70;99.90
11764;DHT22;5939;56.522;14.950;2023-07-08T04:07:46;14.70;99.90
11764;DHT22;5939;56.522;14.950;2023-07-08T04:10:12;14.70;99.90
11764;DHT22;5939;56.522;14.950;2023-07-08T04:12:38;14.70;99.90
11764;DHT22;5939;56.522;14.950;2023-07-08T04:15:07;14.70;99.90
11764;DHT22;5939;56.522;14.950;2023-07-08T04:17:40;14.70;99.90
11764;DHT22;5939;56.522;14.950;2023-07-08T04:20:08;14.70;99.90
11764;DHT22;5939;56.522;14.950;2023-07-08T04:22:36;14.70;99.90
11764;DHT22;5939;56.522;14.950;2023-07-08T04:25:02;14.70;99.90
11764;DHT22;5939;56.522;14.950;2023-07-08T04:27:30;14.60;99.90
11764;DHT22;5939;56.522;14.950;2023-07-08T04:29:55;14.70;99.90
11764;DHT22;5939;56.522;14.950;2023-07-08T04:32:21;14.70;99.90
11764;DHT22;5939;56.522;14.950;2023-07-08T04:34:51;14.70;99.90
11764;DHT22;5939;56.522;14.950;2023-07-08T04:37:16;14.70;99.90
11764;DHT22;5939;56.522;14.950;2023-07-08T04:39:42;14.70;99.90
11764;DHT22;5939;56.522;14.950;2023-07-08T04:42:08;14.70;99.90
11764;DHT22;5939;56.522;14.950;2023-07-08T04:44:33;14.70;99.90
11764;DHT22;5939;56.522;14.950;2023-07-08T04:46:59;14.70;99.90
11764;DHT22;5939;56.522;14.950;2023-07-08T04:49:25;14.70;99.90
11764;DHT22;5939;56.522;14.950;2023-07-08T04:51:57;14.70;99.90
11764;DHT22;5939;56.522;14.950;2023-07-08T04:54:23;14.70;99.90
11764;DHT22;5939;56.522;14.950;2023-07-08T04:56:49;14.70;99.90
11764;DHT22;5939;56.522;14.950;2023-07-08T04:59:18;14.80;99.90
11764;DHT22;5939;56.522;14.950;2023-07-08T05:01:44;14.80;99.90
11764;DHT22;5939;56.522;14.950;2023-07-08T05:04:13;14.80;99.90
11764;DHT22;5939;56.522;14.950;2023-07-08T05:06:39;14.80;99.90
11764;DHT22;5939;56.522;14.950;2023-07-08T05:09:05;14.80;99.90
11764;DHT22;5939;56.522;14.950;2023-07-08T05:11:31;14.80;99.90
11764;DHT22;5939;56.522;14.950;2023-07-08T05:13:57;14.90;99.90
11764;DHT22;5939;56.522;14.950;2023-07-08T05:16:23;14.90;99.90
11764;DHT22;5939;56.522;14.950;2023-07-08T05:18:49;14.90;99.90
11764;DHT22;5939;56.522;14.950;2023-07-08T05:21:15;15.00;99.90
11764;DHT22;5939;56.522;14.950;2023-07-08T05:23:41;15.00;99.90
11764;DHT22;5939;56.522;14.950;2023-07-08T05:26:07;15.00;99.90
11764;DHT22;5939;56.522;14.950;2023-07-08T05:28:33;15.10;99.90
11764;DHT22;5939;56.522;14.950;2023-07-08T05:30:59;15.20;99.90
11764;DHT22;5939;56.522;14.950;2023-07-08T05:33:27;15.30;99.90
11764;DHT22;5939;56.522;14.950;2023-07-08T05:35:53;15.40;99.90
11764;DHT22;5939;56.522;14.950;2023-07-08T05:38:19;15.40;99.90
11764;DHT22;5939;56.522;14.950;2023-07-08T05:40:49;15.50;99.90
11764;DHT22;5939;56.522;14.950;2023-07-08T05:43:15;15.60;99.90
11764;DHT22;5939;56.522;14.950;2023-07-08T05:45:41;15.70;99.90
11764;DHT22;5939;56.522;14.950;2023-07-08T05:48:07;15.80;99.90
11764;DHT22;5939;56.522;14.950;2023-07-08T05:50:32;16.00;99.90
11764;DHT22;5939;56.522;14.950;2023-07-08T05:52:58;16.10;99.90
11764;DHT22;5939;56.522;14.950;2023-07-08T05:55:24;16.20;99.90
11764;DHT22;5939;56.522;14.950;2023-07-08T05:57:49;16.30;99.90
11764;DHT22;5939;56.522;14.950;2023-07-08T06:00:15;16.40;99.90
11764;DHT22;5939;56.522;14.950;2023-07-08T06:02:40;16.50;99.90
11764;DHT22;5939;56.522;14.950;2023-07-08T06:05:07;16.60;99.90
11764;DHT22;5939;56.522;14.950;2023-07-08T06:07:32;16.70;99.90
11764;DHT22;5939;56.522;14.950;2023-07-08T06:09:58;16.90;99.90
11764;DHT22;5939;56.522;14.950;2023-07-08T06:12:24;17.00;99.90
11764;DHT22;5939;56.522;14.950;2023-07-08T06:14:50;17.10;99.90
11764;DHT22;5939;56.522;14.950;2023-07-08T06:17:16;17.20;99.90
11764;DHT22;5939;56.522;14.950;2023-07-08T06:19:43;17.30;99.90
11764;DHT22;5939;56.522;14.950;2023-07-08T06:22:09;17.40;99.90
11764;DHT22;5939;56.522;14.950;2023-07-08T06:24:34;17.60;99.90
11764;DHT22;5939;56.522;14.950;2023-07-08T06:27:00;17.70;99.90
11764;DHT22;5939;56.522;14.950;2023-07-08T06:29:26;17.80;99.90
11764;DHT22;5939;56.522;14.950;2023-07-08T06:31:52;17.90;99.90
11764;DHT22;5939;56.522;14.950;2023-07-08T06:34:18;18.00;99.90
11764;DHT22;5939;56.522;14.950;2023-07-08T06:36:44;18.10;99.90
11764;DHT22;5939;56.522;14.950;2023-07-08T06:39:10;18.30;99.90
11764;DHT22;5939;56.522;14.950;2023-07-08T06:41:37;18.30;99.90
11764;DHT22;5939;56.522;14.950;2023-07-08T06:44:03;18.50;99.90
11764;DHT22;5939;56.522;14.950;2023-07-08T06:46:29;18.60;99.90
11764;DHT22;5939;56.522;14.950;2023-07-08T06:48:55;18.70;99.90
11764;DHT22;5939;56.522;14.950;2023-07-08T06:51:21;18.80;99.90
11764;DHT22;5939;56.522;14.950;2023-07-08T06:53:47;18.90;99.90
11764;DHT22;5939;56.522;14.950;2023-07-08T06:56:12;19.00;99.90
11764;DHT22;5939;56.522;14.950;2023-07-08T06:58:38;19.10;99.90
11764;DHT22;5939;56.522;14.950;2023-07-08T07:01:04;19.20;99.90
11764;DHT22;5939;56.522;14.950;2023-07-08T07:03:30;19.30;99.90
11764;DHT22;5939;56.522;14.950;2023-07-08T07:05:55;19.40;99.90
11764;DHT22;5939;56.522;14.950;2023-07-08T07:08:21;19.60;99.90
11764;DHT22;5939;56.522;14.950;2023-07-08T07:10:47;19.70;99.90
11764;DHT22;5939;56.522;14.950;2023-07-08T07:13:12;19.80;99.90
11764;DHT22;5939;56.522;14.950;2023-07-08T07:15:38;19.90;99.90
11764;DHT22;5939;56.522;14.950;2023-07-08T07:18:04;20.00;99.90
11764;DHT22;5939;56.522;14.950;2023-07-08T07:20:29;20.10;99.90
11764;DHT22;5939;56.522;14.950;2023-07-08T07:22:55;20.20;99.90
11764;DHT22;5939;56.522;14.950;2023-07-08T07:25:21;20.30;99.90
11764;DHT22;5939;56.522;14.950;2023-07-08T07:27:47;20.40;99.90
11764;DHT22;5939;56.522;14.950;2023-07-08T07:30:13;20.50;99.90
11764;DHT22;5939;56.522;14.950;2023-07-08T07:32:41;20.60;99.90
11764;DHT22;5939;56.522;14.950;2023-07-08T07:35:08;20.70;99.90
11764;DHT22;5939;56.522;14.950;2023-07-08T07:37:38;20.80;99.90
11764;DHT22;5939;56.522;14.950;2023-07-08T07:40:04;20.90;99.90
11764;DHT22;5939;56.522;14.950;2023-07-08T07:42:30;21.00;99.90
11764;DHT22;5939;56.522;14.950;2023-07-08T07:44:56;21.10;99.90
11764;DHT22;5939;56.522;14.950;2023-07-08T07:47:21;21.20;99.90
11764;DHT22;5939;56.522;14.950;2023-07-08T07:49:47;21.30;99.90
11764;DHT22;5939;56.522;14.950;2023-07-08T07:52:12;21.30;99.90
11764;DHT22;5939;56.522;14.950;2023-07-08T07:54:38;21.50;99.90
11764;DHT22;5939;56.522;14.950;2023-07-08T07:57:04;21.60;99.90
11764;DHT22;5939;56.522;14.950;2023-07-08T07:59:30;21.70;99.90
11764;DHT22;5939;56.522;14.950;2023-07-08T08:01:56;21.70;99.90
11764;DHT22;5939;56.522;14.950;2023-07-08T08:04:22;21.80;99.90
11764;DHT22;5939;56.522;14.950;2023-07-08T08:06:47;21.90;99.90
11764;DHT22;5939;56.522;14.950;2023-07-08T08:09:13;22.00;99.90
11764;DHT22;5939;56.522;14.950;2023-07-08T08:11:39;22.10;99.90
11764;DHT22;5939;56.522;14.950;2023-07-08T08:14:04;22.20;99.90
11764;DHT22;5939;56.522;14.950;2023-07-08T08:16:30;22.30;99.90
11764;DHT22;5939;56.522;14.950;2023-07-08T08:18:56;22.30;99.90
11764;DHT22;5939;56.522;14.950;2023-07-08T08:21:21;22.40;99.90
11764;DHT22;5939;56.522;14.950;2023-07-08T08:23:47;22.50;99.90
11764;DHT22;5939;56.522;14.950;2023-07-08T08:26:13;22.60;99.90
11764;DHT22;5939;56.522;14.950;2023-07-08T08:28:39;22.60;99.90
11764;DHT22;5939;56.522;14.950;2023-07-08T08:31:05;22.70;99.90
11764;DHT22;5939;56.522;14.950;2023-07-08T08:33:31;22.80;99.90
11764;DHT22;5939;56.522;14.950;2023-07-08T08:35:56;22.80;99.90
11764;DHT22;5939;56.522;14.950;2023-07-08T08:38:22;22.90;99.90
11764;DHT22;5939;56.522;14.950;2023-07-08T08:40:47;23.00;99.90
11764;DHT22;5939;56.522;14.950;2023-07-08T08:43:17;23.00;99.90
11764;DHT22;5939;56.522;14.950;2023-07-08T08:49:10;23.20;99.90
11764;DHT22;5939;56.522;14.950;2023-07-08T08:51:38;23.30;99.90
11764;DHT22;5939;56.522;14.950;2023-07-08T08:54:05;23.40;99.90
11764;DHT22;5939;56.522;14.950;2023-07-08T08:59:17;23.50;99.90
11764;DHT22;5939;56.522;14.950;2023-07-08T09:01:49;23.60;99.90
11764;DHT22;5939;56.522;14.950;2023-07-08T09:04:28;23.70;99.90
11764;DHT22;5939;56.522;14.950;2023-07-08T09:07:06;23.80;99.90
11764;DHT22;5939;56.522;14.950;2023-07-08T09:09:47;23.80;99.90
11764;DHT22;5939;56.522;14.950;2023-07-08T09:12:20;23.90;99.90
11764;DHT22;5939;56.522;14.950;2023-07-08T09:14:50;24.00;99.90
11764;DHT22;5939;56.522;14.950;2023-07-08T09:17:20;24.00;99.90
11764;DHT22;5939;56.522;14.950;2023-07-08T09:23:01;24.20;99.90
11764;DHT22;5939;56.522;14.950;2023-07-08T09:25:47;24.30;99.90
11764;DHT22;5939;56.522;14.950;2023-07-08T09:28:15;24.40;99.90
11764;DHT22;5939;56.522;14.950;2023-07-08T09:30:40;24.40;99.90
11764;DHT22;5939;56.522;14.950;2023-07-08T09:33:08;24.50;99.90
11764;DHT22;5939;56.522;14.950;2023-07-08T09:35:45;24.60;99.90
11764;DHT22;5939;56.522;14.950;2023-07-08T09:38:22;24.60;99.90
11764;DHT22;5939;56.522;14.950;2023-07-08T09:40:50;24.70;99.90
11764;DHT22;5939;56.522;14.950;2023-07-08T09:45:51;24.80;99.90
11764;DHT22;5939;56.522;14.950;2023-07-08T09:48:25;24.90;99.90
11764;DHT22;5939;56.522;14.950;2023-07-08T09:50:52;25.00;99.90
11764;DHT22;5939;56.522;14.950;2023-07-08T09:53:19;25.00;99.90
11764;DHT22;5939;56.522;14.950;2023-07-08T09:55:45;25.10;99.90
11764;DHT22;5939;56.522;14.950;2023-07-08T09:58:30;25.20;99.90
11764;DHT22;5939;56.522;14.950;2023-07-08T10:01:05;25.20;99.90
11764;DHT22;5939;56.522;14.950;2023-07-08T10:03:34;25.30;99.90
11764;DHT22;5939;56.522;14.950;2023-07-08T10:06:17;25.40;99.90
11764;DHT22;5939;56.522;14.950;2023-07-08T10:08:45;25.40;99.90
11764;DHT22;5939;56.522;14.950;2023-07-08T10:11:25;25.50;99.90
11764;DHT22;5939;56.522;14.950;2023-07-08T10:13:53;25.60;99.90
11764;DHT22;5939;56.522;14.950;2023-07-08T10:16:23;25.60;99.90
11764;DHT22;5939;56.522;14.950;2023-07-08T10:18:50;25.70;99.90
11764;DHT22;5939;56.522;14.950;2023-07-08T10:27:08;25.80;99.90
11764;DHT22;5939;56.522;14.950;2023-07-08T10:37:57;26.10;99.90
11764;DHT22;5939;56.522;14.950;2023-07-08T10:43:05;26.20;99.90
11764;DHT22;5939;56.522;14.950;2023-07-08T10:51:30;26.30;99.90
11764;DHT22;5939;56.522;14.950;2023-07-08T10:56:37;26.50;99.90
11764;DHT22;5939;56.522;14.950;2023-07-08T11:07:45;26.70;99.90
11764;DHT22;5939;56.522;14.950;2023-07-08T11:10:23;26.70;99.90
11764;DHT22;5939;56.522;14.950;2023-07-08T11:13:01;26.80;99.90
11764;DHT22;5939;56.522;14.950;2023-07-08T11:15:33;26.80;99.90
11764;DHT22;5939;56.522;14.950;2023-07-08T11:18:06;26.90;99.90
11764;DHT22;5939;56.522;14.950;2023-07-08T11:20:40;26.90;99.90
11764;DHT22;5939;56.522;14.950;2023-07-08T11:23:47;27.00;99.90
11764;DHT22;5939;56.522;14.950;2023-07-08T11:26:31;27.00;99.90
11764;DHT22;5939;56.522;14.950;2023-07-08T11:28:59;27.10;99.90
11764;DHT22;5939;56.522;14.950;2023-07-08T11:31:28;27.10;99.90
11764;DHT22;5939;56.522;14.950;2023-07-08T11:33:57;27.10;99.90
11764;DHT22;5939;56.522;14.950;2023-07-08T11:36:23;27.20;99.90
11764;DHT22;5939;56.522;14.950;2023-07-08T11:38:52;27.20;99.90
11764;DHT22;5939;56.522;14.950;2023-07-08T11:41:20;27.30;99.90
11764;DHT22;5939;56.522;14.950;2023-07-08T11:44:02;27.30;99.90
11764;DHT22;5939;56.522;14.950;2023-07-08T11:46:32;27.40;99.90
11764;DHT22;5939;56.522;14.950;2023-07-08T11:49:09;27.40;99.90
11764;DHT22;5939;56.522;14.950;2023-07-08T11:51:39;27.40;99.90
11764;DHT22;5939;56.522;14.950;2023-07-08T11:56:48;27.50;99.90
11764;DHT22;5939;56.522;14.950;2023-07-08T11:59:19;27.50;99.90
11764;DHT22;5939;56.522;14.950;2023-07-08T12:01:54;27.60;99.80
11764;DHT22;5939;56.522;14.950;2023-07-08T12:04:50;27.60;99.70
11764;DHT22;5939;56.522;14.950;2023-07-08T12:07:20;27.60;99.50
11764;DHT22;5939;56.522;14.950;2023-07-08T12:09:57;27.70;99.50
11764;DHT22;5939;56.522;14.950;2023-07-08T12:12:30;27.70;99.60
11764;DHT22;5939;56.522;14.950;2023-07-08T12:15:09;27.70;99.60
11764;DHT22;5939;56.522;14.950;2023-07-08T12:17:38;27.70;99.50
11764;DHT22;5939;56.522;14.950;2023-07-08T12:20:12;27.80;99.60
11764;DHT22;5939;56.522;14.950;2023-07-08T12:22:41;27.80;99.60
11764;DHT22;5939;56.522;14.950;2023-07-08T12:25:31;27.80;99.60
11764;DHT22;5939;56.522;14.950;2023-07-08T12:27:58;27.80;99.50
11764;DHT22;5939;56.522;14.950;2023-07-08T12:30:25;27.80;99.50
11764;DHT22;5939;56.522;14.950;2023-07-08T12:32:53;27.90;99.40
11764;DHT22;5939;56.522;14.950;2023-07-08T12:35:26;27.90;99.40
11764;DHT22;5939;56.522;14.950;2023-07-08T12:37:54;27.90;99.20
11764;DHT22;5939;56.522;14.950;2023-07-08T12:40:22;27.90;99.20
11764;DHT22;5939;56.522;14.950;2023-07-08T12:42:49;27.90;99.20
11764;DHT22;5939;56.522;14.950;2023-07-08T12:45:21;27.90;99.50
11764;DHT22;5939;56.522;14.950;2023-07-08T12:47:47;28.00;99.20
11764;DHT22;5939;56.522;14.950;2023-07-08T12:50:14;28.00;99.10
11764;DHT22;5939;56.522;14.950;2023-07-08T12:52:43;28.00;99.10
11764;DHT22;5939;56.522;14.950;2023-07-08T12:55:10;28.00;99.10
11764;DHT22;5939;56.522;14.950;2023-07-08T12:57:37;28.00;99.00
11764;DHT22;5939;56.522;14.950;2023-07-08T13:00:12;28.00;99.00
11764;DHT22;5939;56.522;14.950;2023-07-08T13:02:39;28.00;99.00
11764;DHT22;5939;56.522;14.950;2023-07-08T13:05:05;28.00;99.00
11764;DHT22;5939;56.522;14.950;2023-07-08T13:09:57;28.00;98.90
11764;DHT22;5939;56.522;14.950;2023-07-08T13:12:23;28.00;98.90
11764;DHT22;5939;56.522;14.950;2023-07-08T13:14:51;28.00;98.60
11764;DHT22;5939;56.522;14.950;2023-07-08T13:17:18;28.00;98.60
11764;DHT22;5939;56.522;14.950;2023-07-08T13:19:44;27.90;98.50
11764;DHT22;5939;56.522;14.950;2023-07-08T13:22:19;27.90;98.40
11764;DHT22;5939;56.522;14.950;2023-07-08T13:24:46;27.90;98.60
11764;DHT22;5939;56.522;14.950;2023-07-08T13:27:23;27.90;98.70
11764;DHT22;5939;56.522;14.950;2023-07-08T13:29:56;27.90;98.70
11764;DHT22;5939;56.522;14.950;2023-07-08T13:32:31;27.80;98.70
11764;DHT22;5939;56.522;14.950;2023-07-08T13:34:57;27.80;98.80
11764;DHT22;5939;56.522;14.950;2023-07-08T13:37:22;27.70;98.70
11764;DHT22;5939;56.522;14.950;2023-07-08T13:39:52;27.70;98.80
11764;DHT22;5939;56.522;14.950;2023-07-08T13:42:19;27.60;98.60
11764;DHT22;5939;56.522;14.950;2023-07-08T13:44:46;27.60;98.80
11764;DHT22;5939;56.522;14.950;2023-07-08T13:47:29;27.60;98.70
11764;DHT22;5939;56.522;14.950;2023-07-08T13:50:15;27.50;98.70
11764;DHT22;5939;56.522;14.950;2023-07-08T13:52:44;27.50;98.60
11764;DHT22;5939;56.522;14.950;2023-07-08T13:55:16;27.40;98.70
11764;DHT22;5939;56.522;14.950;2023-07-08T13:57:42;27.40;98.50
11764;DHT22;5939;56.522;14.950;2023-07-08T14:00:08;27.40;98.50
11764;DHT22;5939;56.522;14.950;2023-07-08T14:02:34;27.30;98.30
11764;DHT22;5939;56.522;14.950;2023-07-08T14:05:01;27.30;98.20
11764;DHT22;5939;56.522;14.950;2023-07-08T14:07:32;27.30;98.30
11764;DHT22;5939;56.522;14.950;2023-07-08T14:09:58;27.20;98.20
11764;DHT22;5939;56.522;14.950;2023-07-08T14:12:24;27.20;98.30
11764;DHT22;5939;56.522;14.950;2023-07-08T14:14:50;27.10;98.40
11764;DHT22;5939;56.522;14.950;2023-07-08T14:17:24;27.10;98.50
11764;DHT22;5939;56.522;14.950;2023-07-08T14:19:50;27.00;98.50
11764;DHT22;5939;56.522;14.950;2023-07-08T14:22:28;27.00;98.80
11764;DHT22;5939;56.522;14.950;2023-07-08T14:24:55;26.90;98.70
11764;DHT22;5939;56.522;14.950;2023-07-08T14:27:21;26.90;98.80
11764;DHT22;5939;56.522;14.950;2023-07-08T14:29:48;26.90;98.90
11764;DHT22;5939;56.522;14.950;2023-07-08T14:32:22;26.80;98.80
11764;DHT22;5939;56.522;14.950;2023-07-08T14:35:24;26.80;98.80
11764;DHT22;5939;56.522;14.950;2023-07-08T14:37:50;26.80;98.80
11764;DHT22;5939;56.522;14.950;2023-07-08T14:40:33;26.70;98.90
11764;DHT22;5939;56.522;14.950;2023-07-08T14:43:10;26.60;98.80
11764;DHT22;5939;56.522;14.950;2023-07-08T14:45:41;26.60;98.90
11764;DHT22;5939;56.522;14.950;2023-07-08T14:48:10;26.60;98.90
11764;DHT22;5939;56.522;14.950;2023-07-08T14:50:36;26.60;98.90
11764;DHT22;5939;56.522;14.950;2023-07-08T14:53:02;26.50;98.90
11764;DHT22;5939;56.522;14.950;2023-07-08T14:55:28;26.50;98.90
11764;DHT22;5939;56.522;14.950;2023-07-08T14:57:53;26.40;98.90
11764;DHT22;5939;56.522;14.950;2023-07-08T15:00:22;26.40;98.90
11764;DHT22;5939;56.522;14.950;2023-07-08T15:02:49;26.30;98.80
11764;DHT22;5939;56.522;14.950;2023-07-08T15:05:19;26.30;98.80
11764;DHT22;5939;56.522;14.950;2023-07-08T15:07:48;26.30;98.80
11764;DHT22;5939;56.522;14.950;2023-07-08T15:10:14;26.20;98.80
11764;DHT22;5939;56.522;14.950;2023-07-08T15:12:40;26.20;98.90
11764;DHT22;5939;56.522;14.950;2023-07-08T15:15:14;26.20;98.90
11764;DHT22;5939;56.522;14.950;2023-07-08T15:17:40;26.10;98.90
11764;DHT22;5939;56.522;14.950;2023-07-08T15:20:11;26.10;98.80
11764;DHT22;5939;56.522;14.950;2023-07-08T15:22:41;26.00;98.90
11764;DHT22;5939;56.522;14.950;2023-07-08T15:25:12;26.00;98.80
11764;DHT22;5939;56.522;14.950;2023-07-08T15:27:40;26.00;98.80
11764;DHT22;5939;56.522;14.950;2023-07-08T15:30:18;25.90;98.80
11764;DHT22;5939;56.522;14.950;2023-07-08T15:32:45;25.90;98.90
11764;DHT22;5939;56.522;14.950;2023-07-08T15:35:20;25.90;98.80
11764;DHT22;5939;56.522;14.950;2023-07-08T15:37:47;25.80;98.90
11764;DHT22;5939;56.522;14.950;2023-07-08T15:40:17;25.80;98.90
11764;DHT22;5939;56.522;14.950;2023-07-08T15:42:46;25.80;99.30
11764;DHT22;5939;56.522;14.950;2023-07-08T15:45:24;25.80;99.00
11764;DHT22;5939;56.522;14.950;2023-07-08T15:47:50;25.70;99.00
11764;DHT22;5939;56.522;14.950;2023-07-08T15:50:19;25.70;99.00
11764;DHT22;5939;56.522;14.950;2023-07-08T15:52:45;25.70;99.00
11764;DHT22;5939;56.522;14.950;2023-07-08T15:55:12;25.60;99.00
11764;DHT22;5939;56.522;14.950;2023-07-08T15:57:47;25.60;99.00
11764;DHT22;5939;56.522;14.950;2023-07-08T16:00:22;25.60;99.10
11764;DHT22;5939;56.522;14.950;2023-07-08T16:02:51;25.50;99.00
11764;DHT22;5939;56.522;14.950;2023-07-08T16:05:19;25.50;99.10
11764;DHT22;5939;56.522;14.950;2023-07-08T16:07:50;25.40;99.00
11764;DHT22;5939;56.522;14.950;2023-07-08T16:10:17;25.40;99.10
11764;DHT22;5939;56.522;14.950;2023-07-08T16:12:44;25.40;99.10
11764;DHT22;5939;56.522;14.950;2023-07-08T16:15:20;25.40;99.10
11764;DHT22;5939;56.522;14.950;2023-07-08T16:17:48;25.30;99.10
11764;DHT22;5939;56.522;14.950;2023-07-08T16:20:23;25.30;99.10
11764;DHT22;5939;56.522;14.950;2023-07-08T16:22:49;25.30;99.10
11764;DHT22;5939;56.522;14.950;2023-07-08T16:25:16;25.20;99.10
11764;DHT22;5939;56.522;14.950;2023-07-08T16:27:44;25.20;99.10
11764;DHT22;5939;56.522;14.950;2023-07-08T16:30:21;25.20;99.20
11764;DHT22;5939;56.522;14.950;2023-07-08T16:32:47;25.20;99.20
11764;DHT22;5939;56.522;14.950;2023-07-08T16:35:18;25.10;99.20
11764;DHT22;5939;56.522;14.950;2023-07-08T16:37:46;25.10;99.10